This is the latest recevied weather packets stored in our database for station/object W9KHP-1. If no packets are shown the sender has not sent any weather packets the latest 10 day(s).
| Time | Temp. | Humidity | Pressure | Rain* | Wind** | Luminosity | Snow |
|---|---|---|---|---|---|---|---|
| 1777673223 | 15.56° C | 49% | 1017.6 hPa | 0 mm | - | 72 W/m² | - |
| 1777672920 | 16.67° C | 49% | 1017.4 hPa | 0 mm | - | 145 W/m² | - |
| 1777672617 | 16.11° C | 48% | 1017.5 hPa | 0 mm | - | 343 W/m² | - |
| 1777672312 | 15.56° C | 47% | 1017.4 hPa | 0 mm | - | 346 W/m² | - |
| 1777672007 | 15.56° C | 48% | 1017.7 hPa | 0 mm | - | 136 W/m² | - |
| 1777671702 | 16.11° C | 45% | 1017.6 hPa | 0 mm | - | 233 W/m² | - |
| 1777671400 | 16.67° C | 43% | 1017.6 hPa | 0 mm | - | 404 W/m² | - |
| 1777671096 | 16.67° C | 44% | 1017.7 hPa | 0 mm | - | 390 W/m² | - |
| 1777670793 | 16.11° C | 48% | 1017.7 hPa | 0 mm | - | 399 W/m² | - |
| 1777670489 | 15.56° C | 47% | 1017.7 hPa | 0 mm | - | 421 W/m² | - |
| 1777670186 | 14.44° C | 54% | 1017.9 hPa | 0 mm | - | 216 W/m² | - |
| 1777669884 | 15° C | 54% | 1018 hPa | 0 mm | - | 96 W/m² | - |
| 1777669580 | 15° C | 50% | 1017.9 hPa | 0 mm | - | 122 W/m² | - |
| 1777669276 | 16.67° C | 47% | 1018 hPa | 0 mm | - | 112 W/m² | - |
| 1777668973 | 16.67° C | 47% | 1018 hPa | 0 mm | - | 531 W/m² | - |
| 1777668671 | 16.67° C | 46% | 1018 hPa | 0 mm | - | 493 W/m² | - |
| 1777668367 | 16.67° C | 47% | 1018.2 hPa | 0 mm | - | 577 W/m² | - |
| 1777668063 | 17.22° C | 47% | 1018.1 hPa | 0 mm | - | 591 W/m² | - |
| 1777667760 | 16.67° C | 45% | 1018.1 hPa | 0 mm | - | 572 W/m² | - |
| 1777667458 | 16.11° C | 51% | 1018.1 hPa | 0 mm | - | 599 W/m² | - |
| 1777667154 | 16.67° C | 48% | 1018.4 hPa | 0 mm | - | 626 W/m² | - |
| 1777666851 | 16.67° C | 47% | 1018.2 hPa | 0 mm | - | 593 W/m² | - |
| 1777666548 | 16.67° C | 46% | 1018.5 hPa | 0 mm | - | 545 W/m² | - |
| 1777666244 | 16.67° C | 47% | 1018.5 hPa | 0 mm | - | 607 W/m² | - |
| 1777665942 | 16.67° C | 49% | 1018.4 hPa | 0 mm | - | 631 W/m² | - |
* Rain latest hour (hover to see other rain measurements)
** Current wind speed in m/s (hover to see current wind gust speed)